createdAt,value
2018-12-25T00:02:10.252Z,3.40
2018-12-25T00:05:32.739Z,3.40
2018-12-25T00:08:55.438Z,3.40
2018-12-25T00:12:17.991Z,3.50
2018-12-25T00:15:40.415Z,3.50
2018-12-25T00:19:06.250Z,3.50
2018-12-25T00:22:27.425Z,3.60
2018-12-25T00:25:49.675Z,3.60
2018-12-25T00:29:12.049Z,3.60
2018-12-25T00:32:34.515Z,3.60
2018-12-25T00:35:56.932Z,3.60
2018-12-25T00:39:19.273Z,3.70
2018-12-25T00:42:41.849Z,3.70
2018-12-25T00:46:04.775Z,3.70
2018-12-25T00:49:27.569Z,3.70
2018-12-25T00:52:50.238Z,3.60
2018-12-25T00:56:12.397Z,3.70
2018-12-25T00:59:34.521Z,3.60
2018-12-25T01:02:57.009Z,3.60
2018-12-25T01:06:19.512Z,3.70
2018-12-25T01:09:42.056Z,3.70
2018-12-25T01:13:04.837Z,3.70
2018-12-25T01:16:27.449Z,3.60
2018-12-25T01:19:50.150Z,3.60
2018-12-25T01:23:13.263Z,3.70
2018-12-25T01:26:35.986Z,3.60
2018-12-25T01:29:58.486Z,3.60
2018-12-25T01:33:21.238Z,3.60
2018-12-25T01:36:43.424Z,3.60
2018-12-25T01:40:06.228Z,3.60
2018-12-25T01:43:28.704Z,3.60
2018-12-25T01:46:51.324Z,3.60
2018-12-25T01:50:13.740Z,3.50
2018-12-25T01:53:36.210Z,3.50
2018-12-25T01:56:58.708Z,3.50
2018-12-25T02:00:21.944Z,3.50
2018-12-25T02:03:44.248Z,3.50
2018-12-25T02:07:06.716Z,3.60
2018-12-25T02:10:29.425Z,3.60
2018-12-25T02:13:51.768Z,3.60
2018-12-25T02:17:14.288Z,3.70
2018-12-25T02:20:36.661Z,3.70
2018-12-25T02:23:59.070Z,3.80
2018-12-25T02:27:21.633Z,3.80
2018-12-25T02:30:44.090Z,3.80
2018-12-25T02:34:06.219Z,3.90
2018-12-25T02:37:28.904Z,3.90
2018-12-25T02:40:51.256Z,3.90
2018-12-25T02:44:13.931Z,3.90
2018-12-25T02:47:36.314Z,3.90
2018-12-25T02:50:59.079Z,3.90
2018-12-25T02:54:21.277Z,3.90
2018-12-25T02:57:44.072Z,3.90
2018-12-25T03:01:06.510Z,4.00
2018-12-25T03:04:29.055Z,4.00
2018-12-25T03:07:51.696Z,4.00
2018-12-25T03:11:14.261Z,4.00
2018-12-25T03:14:36.973Z,3.90
2018-12-25T03:17:59.523Z,3.90
2018-12-25T03:21:22.149Z,3.90
2018-12-25T03:24:44.582Z,3.90
2018-12-25T03:28:07.033Z,3.90
2018-12-25T03:31:29.068Z,3.90
2018-12-25T03:34:51.438Z,3.90
2018-12-25T03:38:13.843Z,3.90
2018-12-25T03:41:36.775Z,3.90
2018-12-25T03:44:59.130Z,3.90
2018-12-25T03:48:21.802Z,3.90
2018-12-25T03:51:43.848Z,3.90
2018-12-25T03:55:05.945Z,4.00
2018-12-25T03:58:28.438Z,4.00
2018-12-25T04:01:51.231Z,4.00
2018-12-25T04:05:13.784Z,4.10
2018-12-25T04:08:35.956Z,4.10
2018-12-25T04:11:58.061Z,4.10
2018-12-25T04:15:20.228Z,4.10
2018-12-25T04:18:42.645Z,4.10
2018-12-25T04:22:05.233Z,4.00
2018-12-25T04:25:27.956Z,4.00
2018-12-25T04:28:50.331Z,4.00
2018-12-25T04:32:13.342Z,4.10
2018-12-25T04:35:35.995Z,4.10
2018-12-25T04:38:58.590Z,4.10
2018-12-25T04:42:21.174Z,4.10
2018-12-25T04:45:43.739Z,4.10
2018-12-25T04:49:06.188Z,4.00
2018-12-25T04:52:28.685Z,4.00
2018-12-25T04:55:51.381Z,4.00
2018-12-25T04:59:14.079Z,4.00
2018-12-25T05:02:36.589Z,4.00
2018-12-25T05:05:59.333Z,4.00
2018-12-25T05:09:21.857Z,4.00
2018-12-25T05:12:44.294Z,4.00
2018-12-25T05:16:06.682Z,4.00
2018-12-25T05:19:29.045Z,4.00
2018-12-25T05:22:51.432Z,4.00
2018-12-25T05:26:13.752Z,3.90
2018-12-25T05:29:36.470Z,3.90
2018-12-25T05:32:59.230Z,3.80
2018-12-25T05:36:21.391Z,3.80
2018-12-25T05:39:43.858Z,3.70
2018-12-25T05:43:06.645Z,3.70
2018-12-25T05:46:29.337Z,3.60
2018-12-25T05:49:51.769Z,3.60
2018-12-25T05:53:14.454Z,3.60
2018-12-25T05:56:36.938Z,3.60
2018-12-25T05:59:59.676Z,3.60
2018-12-25T06:03:22.522Z,3.60
2018-12-25T06:06:45.422Z,3.60
2018-12-25T06:10:08.216Z,3.60
2018-12-25T06:13:30.671Z,3.60
2018-12-25T06:16:53.200Z,3.70
2018-12-25T06:20:15.862Z,3.60
2018-12-25T06:23:38.329Z,3.60
2018-12-25T06:27:00.636Z,3.60
2018-12-25T06:30:23.088Z,3.70
2018-12-25T06:33:45.516Z,3.70
2018-12-25T06:37:07.938Z,3.70
2018-12-25T06:40:30.398Z,3.70
2018-12-25T06:43:52.990Z,3.80
2018-12-25T06:47:15.021Z,3.80
2018-12-25T06:50:37.449Z,3.80
2018-12-25T06:54:00.135Z,3.80
2018-12-25T06:57:22.934Z,3.80
2018-12-25T07:00:45.469Z,3.80
2018-12-25T07:04:08.127Z,3.80
2018-12-25T07:07:30.877Z,3.80
2018-12-25T07:10:53.441Z,3.90
2018-12-25T07:14:15.696Z,3.90
2018-12-25T07:17:38.174Z,3.90
2018-12-25T07:21:00.820Z,3.90
2018-12-25T07:24:23.652Z,3.90
2018-12-25T07:27:45.812Z,3.90
2018-12-25T07:31:08.426Z,3.90
2018-12-25T07:34:30.754Z,3.90
2018-12-25T07:37:53.572Z,3.80
2018-12-25T07:41:16.624Z,3.80
2018-12-25T07:44:39.546Z,3.80
2018-12-25T07:48:02.328Z,3.70
2018-12-25T07:51:25.240Z,3.80
2018-12-25T07:54:47.432Z,3.70
2018-12-25T07:58:10.000Z,3.70
2018-12-25T08:01:32.410Z,3.80
2018-12-25T08:04:54.765Z,3.80
2018-12-25T08:08:17.414Z,3.80
2018-12-25T08:11:39.707Z,3.80
2018-12-25T08:15:02.318Z,3.80
2018-12-25T08:18:24.704Z,3.80
2018-12-25T08:21:47.116Z,3.90
2018-12-25T08:25:09.886Z,3.90
2018-12-25T08:28:32.572Z,4.00
2018-12-25T08:31:54.642Z,4.00
2018-12-25T08:35:17.073Z,4.00
2018-12-25T08:38:39.612Z,4.00
2018-12-25T08:42:02.182Z,4.10
2018-12-25T08:45:24.733Z,4.10
2018-12-25T08:48:46.937Z,4.20
2018-12-25T08:52:09.345Z,4.20
2018-12-25T08:55:31.780Z,4.20
2018-12-25T08:58:54.150Z,4.30
2018-12-25T09:02:16.658Z,4.30
2018-12-25T09:05:39.195Z,4.40
2018-12-25T09:09:02.266Z,4.40
2018-12-25T09:12:24.566Z,4.50
2018-12-25T09:15:47.083Z,4.50
2018-12-25T09:19:09.298Z,4.60
2018-12-25T09:22:31.630Z,4.60
2018-12-25T09:25:54.319Z,4.70
2018-12-25T09:29:16.405Z,4.70
2018-12-25T09:32:38.831Z,4.70
2018-12-25T09:36:01.006Z,4.70
2018-12-25T09:39:23.485Z,4.80
2018-12-25T09:42:46.252Z,4.80
2018-12-25T09:46:08.415Z,4.80
2018-12-25T09:49:30.816Z,4.90
2018-12-25T09:52:53.298Z,4.90
2018-12-25T09:56:15.794Z,4.90
2018-12-25T09:59:38.258Z,5.00
2018-12-25T10:03:00.777Z,5.00
2018-12-25T10:06:23.311Z,5.00
2018-12-25T10:09:46.081Z,5.10
2018-12-25T10:13:08.724Z,5.10
2018-12-25T10:16:31.443Z,5.10
2018-12-25T10:19:53.788Z,5.10
2018-12-25T10:23:16.246Z,5.00
2018-12-25T10:26:38.429Z,5.10
2018-12-25T10:30:01.370Z,5.20
2018-12-25T10:33:23.903Z,5.20
2018-12-25T10:36:46.606Z,5.20
2018-12-25T10:40:09.241Z,5.30
2018-12-25T10:43:31.661Z,5.30
2018-12-25T10:46:54.095Z,5.30
2018-12-25T10:50:16.461Z,5.40
2018-12-25T10:53:39.103Z,5.40
2018-12-25T10:57:01.210Z,5.40
2018-12-25T11:00:24.680Z,5.40
2018-12-25T11:03:47.269Z,5.50
2018-12-25T11:07:09.670Z,5.50
2018-12-25T11:10:33.265Z,5.50
2018-12-25T11:13:55.637Z,5.60
2018-12-25T11:17:17.865Z,5.50
2018-12-25T11:20:40.332Z,5.50
2018-12-25T11:24:02.869Z,5.60
2018-12-25T11:27:25.649Z,5.70
2018-12-25T11:30:48.077Z,5.70
2018-12-25T11:34:10.831Z,5.80
2018-12-25T11:37:33.221Z,5.80
2018-12-25T11:40:55.673Z,5.80
2018-12-25T11:44:18.121Z,5.80
2018-12-25T11:47:40.227Z,5.80
2018-12-25T11:51:02.933Z,5.80
2018-12-25T11:54:25.109Z,5.80
2018-12-25T11:57:47.729Z,5.80
2018-12-25T12:01:10.605Z,5.80
2018-12-25T12:04:33.543Z,5.80
2018-12-25T12:07:56.118Z,5.80
2018-12-25T12:11:18.453Z,5.80
2018-12-25T12:14:41.361Z,5.80
2018-12-25T12:18:03.962Z,5.90
2018-12-25T12:21:26.418Z,5.90
2018-12-25T12:24:48.919Z,5.90
2018-12-25T12:28:10.973Z,5.90
2018-12-25T12:31:33.388Z,5.90
2018-12-25T12:34:55.781Z,5.90
2018-12-25T12:38:18.537Z,5.90
2018-12-25T12:41:40.825Z,5.80
2018-12-25T12:45:03.395Z,5.90
2018-12-25T12:48:26.077Z,5.90
2018-12-25T12:51:48.927Z,5.90
2018-12-25T12:55:11.139Z,5.90
2018-12-25T12:58:33.588Z,6.00
2018-12-25T13:01:55.982Z,5.90
2018-12-25T13:05:18.363Z,5.90
2018-12-25T13:08:40.734Z,5.80
2018-12-25T13:12:03.250Z,5.80
2018-12-25T13:15:25.689Z,5.90
2018-12-25T13:18:48.177Z,5.90
2018-12-25T13:22:10.398Z,5.80
2018-12-25T13:25:32.957Z,5.90
2018-12-25T13:28:55.646Z,5.80
2018-12-25T13:32:18.266Z,5.90
2018-12-25T13:35:41.125Z,6.00
2018-12-25T13:39:05.550Z,5.90
2018-12-25T13:42:28.378Z,5.90
2018-12-25T13:45:50.926Z,5.80
2018-12-25T13:49:13.700Z,5.80
2018-12-25T13:52:36.539Z,5.80
2018-12-25T13:55:59.309Z,5.80
2018-12-25T13:59:21.910Z,5.80
2018-12-25T14:02:44.419Z,5.70
2018-12-25T14:06:06.537Z,5.70
2018-12-25T14:09:28.929Z,5.70
2018-12-25T14:12:51.353Z,5.70
2018-12-25T14:16:14.042Z,5.70
2018-12-25T14:19:36.637Z,5.70
2018-12-25T14:22:59.258Z,5.70
2018-12-25T14:26:21.734Z,5.60
2018-12-25T14:29:44.398Z,5.60
2018-12-25T14:33:06.757Z,5.60
2018-12-25T14:36:29.297Z,5.50
2018-12-25T14:39:51.449Z,5.50
2018-12-25T14:43:14.100Z,5.50
2018-12-25T14:46:36.326Z,5.50
2018-12-25T14:49:58.878Z,5.50
2018-12-25T14:53:21.393Z,5.50
2018-12-25T14:56:44.081Z,5.50
2018-12-25T15:00:08.959Z,5.50
2018-12-25T15:03:31.693Z,5.50
2018-12-25T15:06:54.148Z,5.50
2018-12-25T15:10:16.747Z,5.40
2018-12-25T15:13:38.958Z,5.40
2018-12-25T15:17:01.418Z,5.50
2018-12-25T15:20:23.909Z,5.50
2018-12-25T15:23:46.737Z,5.50
2018-12-25T15:27:08.880Z,5.40
2018-12-25T15:30:31.550Z,5.50
2018-12-25T15:33:54.194Z,5.50
2018-12-25T15:37:17.102Z,5.50
2018-12-25T15:40:39.696Z,5.50
2018-12-25T15:44:02.410Z,5.50
2018-12-25T15:47:24.857Z,5.60
2018-12-25T15:50:47.250Z,5.50
2018-12-25T15:54:09.662Z,5.50
2018-12-25T15:57:32.052Z,5.50
2018-12-25T16:00:54.506Z,5.50
2018-12-25T16:04:16.822Z,5.50
2018-12-25T16:07:39.650Z,5.50
2018-12-25T16:11:02.340Z,5.50
2018-12-25T16:14:24.874Z,5.40
2018-12-25T16:17:47.609Z,5.40
2018-12-25T16:21:10.038Z,5.40
2018-12-25T16:24:32.449Z,5.40
2018-12-25T16:27:54.854Z,5.40
2018-12-25T16:31:17.362Z,5.40
2018-12-25T16:34:39.569Z,5.40
2018-12-25T16:38:02.205Z,5.40
2018-12-25T16:41:24.605Z,5.40
2018-12-25T16:44:47.090Z,5.40
2018-12-25T16:48:09.253Z,5.50
2018-12-25T16:51:32.106Z,5.50
2018-12-25T16:54:54.410Z,5.50
2018-12-25T16:58:17.197Z,5.50
2018-12-25T17:01:40.114Z,5.50
2018-12-25T17:05:02.743Z,5.50
2018-12-25T17:08:25.569Z,5.50
2018-12-25T17:11:48.133Z,5.50
2018-12-25T17:15:10.799Z,5.60
2018-12-25T17:18:33.341Z,5.60
2018-12-25T17:21:55.725Z,5.50
2018-12-25T17:25:18.269Z,5.50
2018-12-25T17:28:40.682Z,5.50
2018-12-25T17:32:02.839Z,5.50
2018-12-25T17:35:25.260Z,5.50
2018-12-25T17:38:47.801Z,5.50
2018-12-25T17:42:10.494Z,5.50
2018-12-25T17:45:33.162Z,5.50
2018-12-25T17:48:55.956Z,5.50
2018-12-25T17:52:18.703Z,5.50
2018-12-25T17:55:41.192Z,5.50
2018-12-25T17:59:03.757Z,5.50
2018-12-25T18:02:26.250Z,5.50
2018-12-25T18:05:48.737Z,5.50
2018-12-25T18:09:11.154Z,5.50
2018-12-25T18:12:33.639Z,5.50
2018-12-25T18:15:55.969Z,5.50
2018-12-25T18:19:18.550Z,5.60
2018-12-25T18:22:41.194Z,5.60
2018-12-25T18:26:03.730Z,5.50
2018-12-25T18:29:26.365Z,5.50
2018-12-25T18:32:49.106Z,5.50
2018-12-25T18:36:11.388Z,5.50
2018-12-25T18:39:34.229Z,5.50
2018-12-25T18:42:56.494Z,5.50
2018-12-25T18:46:18.661Z,5.50
2018-12-25T18:49:40.760Z,5.50
2018-12-25T18:53:02.856Z,5.50
2018-12-25T18:56:24.899Z,5.40
2018-12-25T18:59:47.257Z,5.40
2018-12-25T19:03:09.370Z,5.40
2018-12-25T19:06:33.641Z,5.40
2018-12-25T19:09:56.185Z,5.40
2018-12-25T19:13:18.997Z,5.40
2018-12-25T19:16:41.454Z,5.40
2018-12-25T19:20:03.815Z,5.30
2018-12-25T19:23:26.373Z,5.40
2018-12-25T19:26:49.000Z,5.30
2018-12-25T19:30:12.045Z,5.40
2018-12-25T19:33:34.641Z,5.40
2018-12-25T19:36:57.226Z,5.40
2018-12-25T19:40:20.300Z,5.40
2018-12-25T19:43:42.651Z,5.40
2018-12-25T19:47:05.034Z,5.40
2018-12-25T19:50:27.597Z,5.40
2018-12-25T19:53:50.494Z,5.40
2018-12-25T19:57:12.877Z,5.40
2018-12-25T20:00:35.485Z,5.40
2018-12-25T20:04:19.642Z,5.40
2018-12-25T20:08:18.329Z,5.40
2018-12-25T20:12:11.198Z,5.40
2018-12-25T20:16:06.650Z,5.40
2018-12-25T20:19:54.142Z,5.40
2018-12-25T20:23:54.122Z,5.40
2018-12-25T20:27:53.738Z,5.50
2018-12-25T20:31:48.291Z,5.50
2018-12-25T20:35:47.485Z,5.50
2018-12-25T20:39:50.125Z,5.50
2018-12-25T20:43:41.997Z,5.50
2018-12-25T20:47:38.167Z,5.50
2018-12-25T20:51:37.008Z,5.50
2018-12-25T20:55:46.478Z,5.50
2018-12-25T20:59:43.373Z,5.40
2018-12-25T21:03:36.446Z,5.40
2018-12-25T21:07:47.082Z,5.40
2018-12-25T21:11:42.183Z,5.40
2018-12-25T21:15:37.228Z,5.40
2018-12-25T21:19:28.249Z,5.40
2018-12-25T21:23:27.609Z,5.40
2018-12-25T21:27:43.207Z,5.40
2018-12-25T21:31:06.090Z,5.40
2018-12-25T21:34:28.664Z,5.40
2018-12-25T21:37:51.810Z,5.40
2018-12-25T21:41:15.498Z,5.50
2018-12-25T21:44:38.273Z,5.50
2018-12-25T21:48:00.981Z,5.50
2018-12-25T21:51:24.093Z,5.50
2018-12-25T21:54:47.049Z,5.50
2018-12-25T21:58:09.597Z,5.50
2018-12-25T22:01:31.842Z,5.50
2018-12-25T22:04:54.294Z,5.50
2018-12-25T22:08:16.388Z,5.50
2018-12-25T22:11:38.977Z,5.50
2018-12-25T22:15:01.330Z,5.50
2018-12-25T22:18:23.771Z,5.50
2018-12-25T22:21:46.292Z,5.50
2018-12-25T22:25:08.524Z,5.50
2018-12-25T22:28:30.978Z,5.50
2018-12-25T22:31:53.414Z,5.40
2018-12-25T22:35:16.117Z,5.50
2018-12-25T22:38:38.700Z,5.50
2018-12-25T22:42:01.670Z,5.50
2018-12-25T22:45:24.523Z,5.50
2018-12-25T22:48:47.004Z,5.50
2018-12-25T22:52:09.789Z,5.50
2018-12-25T22:55:35.907Z,5.50
2018-12-25T22:58:57.192Z,5.60
2018-12-25T23:02:19.868Z,5.60
2018-12-25T23:05:42.796Z,5.50
2018-12-25T23:09:06.954Z,5.50
2018-12-25T23:12:29.574Z,5.50
2018-12-25T23:15:51.953Z,5.50
2018-12-25T23:19:14.542Z,5.50
2018-12-25T23:22:37.368Z,5.50
2018-12-25T23:26:00.178Z,5.50
2018-12-25T23:29:22.621Z,5.50
2018-12-25T23:32:45.090Z,5.50
2018-12-25T23:36:07.294Z,5.60
2018-12-25T23:39:29.717Z,5.60
2018-12-25T23:42:51.764Z,5.60
2018-12-25T23:46:14.166Z,5.60
2018-12-25T23:49:36.546Z,5.60
2018-12-25T23:52:59.323Z,5.60
2018-12-25T23:56:21.782Z,5.60
2018-12-25T23:59:44.147Z,5.60
